Metsäpalo Alkaa: 25-04-2019 08:00 Päättyy: 26-04-2019 07:00 Varoitus: Metsäpalo Taso: Keltainen info button
suomi:
Ruohikkopalovaara: Ruohikkopalojen vaara on suuri.

svenska:
Risk för gräsbrand: Faran för gräsbränder är stor.

english:
Grass fire warning: The risk for grass fires is high. 


Webkamera Lisätietoa Webcam


Yksityisiä sääasemia lähellä:

Sääasema Juupajoki

Sääasema Orivesi

Sääasema Muurame

Sääasema Jyväskylä

Sääasema Vihtavuori


Löydät sääaseman tiedot myös:

Finland Weather Exchange

European Weather Network

Weather Underground

AWEKAS



Säätiedot lähimmiltä METAR asemilta

   
EFHA - Halli (Fin-Afb), Finland
Etäisyys asemalta: Kaakko 25 km
Päivitetty: 25.04.2019 10:50
Selkeää  
Selkeää  
   Tuuli: Kaakko 3.1 m/s
Tuuli: Kaakko 3.1 m/s
Lämpötila: 16°C
Kastepiste: -1°C
Kosteus: 31%
Ilmanpaine: 1025 hPa
Näkyvyys: Enemmän kuin 10 km
Pilvitiedot: Selkeää
EFHA 250750Z 14006KT 100V170 CAVOK 16/M01 Q1025
EFJY - Jyvaskyla (Mil/Civ), Finland
Etäisyys asemalta: Koillinen 75 km
Päivitetty: 25.04.2019 10:50
Selkeää  
Selkeää  
   Tuuli: Vaihtelee 1.5 m/s
Tuuli: Vaihtelee 1.5 m/s
Lämpötila: 16°C
Kastepiste: -2°C
Kosteus: 29%
Ilmanpaine: 1025 hPa
Näkyvyys: Enemmän kuin 10 km
Pilvitiedot: Selkeää
EFJY 250750Z AUTO VRB03KT 050V200 CAVOK 16/M02 Q1025
EFTP - Tampere/Pirkkala, Finland
Etäisyys asemalta: Lounas 81 km
Päivitetty: 25.04.2019 10:50
Selkeää  
Selkeää  
   Tuuli: Itä 3.6 m/s
Tuuli: Itä 3.6 m/s
Lämpötila: 17°C
Kastepiste: 0°C
Kosteus: 32%
Ilmanpaine: 1025 hPa
Näkyvyys: Enemmän kuin 10 km
Pilvitiedot: Selkeää
EFTP 250750Z 10007KT 060V140 CAVOK 17/00 Q1025
EFSI - Seinajoki-Ilmajoki, Finland
Etäisyys asemalta: Luode 114 km
Päivitetty: 25.04.2019 10:50
Selkeää  
Selkeää  
   Tuuli: Itäkaakko 3.1 m/s
Tuuli: Itäkaakko 3.1 m/s
Lämpötila: 17°C
Kastepiste: 1°C
Kosteus: 34%
Ilmanpaine: 1024 hPa
Näkyvyys: Enemmän kuin 10 km
Pilvitiedot: Selkeää
EFSI 250750Z AUTO 12006KT 100V160 CAVOK 17/01 Q1024
EFMI - Mikkeli, Finland
Etäisyys asemalta: Itäkaakko 147 km
Päivitetty: 25.04.2019 10:50
Selkeää  
Selkeää  
   Tuuli: Tyyntä
Tuuli: Tyyntä
Lämpötila: 15°C
Kastepiste: 3°C
Kosteus: 45%
Ilmanpaine: 1025 hPa
Näkyvyys: Enemmän kuin 10 km
Pilvitiedot: Selkeää
EFMI 250750Z AUTO 00000KT CAVOK 15/03 Q1025
EFPO - Pori (Mil/Civ), Finland
Etäisyys asemalta: Länsilounas 154 km
Päivitetty: 25.04.2019 10:50
Selkeää  
Selkeää  
   Tuuli: Itä 3.6 m/s
Tuuli: Itä 3.6 m/s
Lämpötila: 17°C
Kastepiste: 0°C
Kosteus: 32%
Ilmanpaine: 1023 hPa
Näkyvyys: Enemmän kuin 10 km
Pilvitiedot: Selkeää
EFPO 250750Z AUTO 09007KT CAVOK 17/M00 Q1023
EFUT - Utti (Fin-Afb), Finland
Etäisyys asemalta: Kaakko 180 km
Päivitetty: 25.04.2019 10:50
Selkeää  
Selkeää  
   Tuuli: Itä 2.6 m/s
Tuuli: Itä 2.6 m/s
Lämpötila: 17°C
Kastepiste: -1°C
Kosteus: 30%
Ilmanpaine: 1025 hPa
Näkyvyys: Enemmän kuin 10 km
Pilvitiedot: Selkeää
EFUT 250750Z 10005KT 030V150 CAVOK 17/M01 Q1025
EFVA - Vaasa, Finland
Etäisyys asemalta: Luode 180 km
Päivitetty: 25.04.2019 10:50
Selkeää  
Selkeää  
   Tuuli: Itäkaakko 3.6 m/s
Tuuli: Itäkaakko 3.6 m/s
Lämpötila: 17°C
Kastepiste: 0°C
Kosteus: 32%
Ilmanpaine: 1024 hPa
Näkyvyys: Enemmän kuin 10 km
Pilvitiedot: Selkeää
EFVA 250750Z AUTO 12007KT 080V150 CAVOK 17/00 Q1024
EFHK - Helsinki/Vantaa, Finland
Etäisyys asemalta: Etelä 191 km
Päivitetty: 25.04.2019 10:50
Selkeää  
Selkeää  
   Tuuli: Itä 5.7 m/s
Tuuli: Itä 5.7 m/s
Lämpötila: 19°C
Kastepiste: 1°C
Kosteus: 30%
Ilmanpaine: 1024 hPa
Näkyvyys: Enemmän kuin 10 km
Pilvitiedot: Selkeää
EFHK 250750Z 08011KT CAVOK 19/01 Q1024 NOSIG

Alkuperäinen skripti  Saratoga-weather.org Sovitettu myös templatelle  Weerstation Leuven

Laitteet joita käytämme:

Sääasema
Davis VP2

Sääasemaohjelma
Cumulus

Sääaseman palvelin
HP ProBook 6460b

Palveluntarjoaja
Radicenter

Davis VP2

Cumulus

HP ProBook 6460b

Radicenter




Flag Counter Cumulus Top Weather Sites